sensor_id;sensor_type;location;lat;lon;timestamp;pressure;altitude;pressure_sealevel;temperature;humidity
75747;BME280;64363;52.198;21.020;2022-12-31T09:10:49;100301.06;;;9.19;75.48
75747;BME280;64363;52.198;21.020;2022-12-31T11:04:34;100171.81;;;10.77;72.16
75747;BME280;64363;52.198;21.020;2022-12-31T11:17:10;100137.34;;;11.19;71.24
75747;BME280;64363;52.198;21.020;2022-12-31T11:30:09;100153.94;;;11.51;70.86
75747;BME280;64363;52.198;21.020;2022-12-31T11:46:36;100157.41;;;11.53;71.11
75747;BME280;64363;52.198;21.020;2022-12-31T15:42:45;100113.34;;;12.89;72.38
75747;BME280;64363;52.198;21.020;2022-12-31T15:45:20;100115.66;;;12.96;72.12
75747;BME280;64363;52.198;21.020;2022-12-31T15:47:51;100118.34;;;12.96;72.14
75747;BME280;64363;52.198;21.020;2022-12-31T15:50:22;100108.34;;;13.00;72.09
75747;BME280;64363;52.198;21.020;2022-12-31T15:55:28;100108.66;;;13.14;71.67
75747;BME280;64363;52.198;21.020;2022-12-31T15:57:57;100097.22;;;13.10;71.69
75747;BME280;64363;52.198;21.020;2022-12-31T16:00:33;100101.72;;;13.08;71.79
75747;BME280;64363;52.198;21.020;2022-12-31T16:03:01;100122.97;;;13.13;71.91
75747;BME280;64363;52.198;21.020;2022-12-31T16:05:27;100110.97;;;13.22;71.87
75747;BME280;64363;52.198;21.020;2022-12-31T16:07:54;100128.47;;;13.29;71.41
75747;BME280;64363;52.198;21.020;2022-12-31T16:10:30;100125.38;;;13.38;71.16
75747;BME280;64363;52.198;21.020;2022-12-31T16:12:57;100110.75;;;13.45;70.88
75747;BME280;64363;52.198;21.020;2022-12-31T16:15:27;100110.31;;;13.35;71.20
75747;BME280;64363;52.198;21.020;2022-12-31T16:18:07;100125.44;;;13.36;71.19
75747;BME280;64363;52.198;21.020;2022-12-31T16:20:40;100119.50;;;13.30;71.23
75747;BME280;64363;52.198;21.020;2022-12-31T16:23:18;100132.91;;;13.30;71.59
75747;BME280;64363;52.198;21.020;2022-12-31T16:25:45;100134.69;;;13.29;71.41
75747;BME280;64363;52.198;21.020;2022-12-31T16:28:15;100132.53;;;13.37;71.28
75747;BME280;64363;52.198;21.020;2022-12-31T16:30:43;100134.84;;;13.45;70.98
75747;BME280;64363;52.198;21.020;2022-12-31T16:33:13;100146.44;;;13.45;71.13
75747;BME280;64363;52.198;21.020;2022-12-31T16:35:39;100130.47;;;13.44;71.10
75747;BME280;64363;52.198;21.020;2022-12-31T16:38:13;100153.38;;;13.49;71.01
75747;BME280;64363;52.198;21.020;2022-12-31T16:40:42;100141.59;;;13.53;71.02
75747;BME280;64363;52.198;21.020;2022-12-31T16:43:23;100133.63;;;13.52;70.83
75747;BME280;64363;52.198;21.020;2022-12-31T16:45:50;100138.03;;;13.53;71.02
75747;BME280;64363;52.198;21.020;2022-12-31T16:48:17;100136.59;;;13.46;71.08
75747;BME280;64363;52.198;21.020;2022-12-31T16:50:47;100149.72;;;13.52;70.91
75747;BME280;64363;52.198;21.020;2022-12-31T16:53:17;100129.69;;;13.40;71.47
75747;BME280;64363;52.198;21.020;2022-12-31T16:55:51;100120.94;;;13.37;71.79
75747;BME280;64363;52.198;21.020;2022-12-31T16:58:24;100145.91;;;13.37;71.81
75747;BME280;64363;52.198;21.020;2022-12-31T17:00:53;100140.66;;;13.36;71.86
75747;BME280;64363;52.198;21.020;2022-12-31T17:03:24;100136.72;;;13.24;72.10
75747;BME280;64363;52.198;21.020;2022-12-31T17:05:56;100143.09;;;13.22;72.52
75747;BME280;64363;52.198;21.020;2022-12-31T17:08:26;100141.22;;;13.24;72.18
75747;BME280;64363;52.198;21.020;2022-12-31T17:10:53;100133.41;;;13.19;72.51
75747;BME280;64363;52.198;21.020;2022-12-31T17:13:28;100142.06;;;13.24;72.79
75747;BME280;64363;52.198;21.020;2022-12-31T17:15:54;100148.19;;;13.28;72.41
75747;BME280;64363;52.198;21.020;2022-12-31T17:18:22;100156.78;;;13.34;72.38
75747;BME280;64363;52.198;21.020;2022-12-31T17:20:50;100152.81;;;13.43;71.80
75747;BME280;64363;52.198;21.020;2022-12-31T17:23:26;100144.47;;;13.49;71.75
75747;BME280;64363;52.198;21.020;2022-12-31T17:25:58;100146.44;;;13.45;71.86
75747;BME280;64363;52.198;21.020;2022-12-31T17:28:25;100145.34;;;13.49;71.93
75747;BME280;64363;52.198;21.020;2022-12-31T17:37:03;100143.97;;;13.41;72.00
75747;BME280;64363;52.198;21.020;2022-12-31T17:39:41;100161.63;;;13.45;72.10
75747;BME280;64363;52.198;21.020;2022-12-31T17:42:08;100159.53;;;13.33;72.19
75747;BME280;64363;52.198;21.020;2022-12-31T17:44:39;100165.75;;;13.33;72.21
75747;BME280;64363;52.198;21.020;2022-12-31T17:47:07;100147.72;;;13.37;72.19
75747;BME280;64363;52.198;21.020;2022-12-31T17:49:36;100163.22;;;13.30;73.07
75747;BME280;64363;52.198;21.020;2022-12-31T17:52:02;100175.69;;;13.31;72.43
75747;BME280;64363;52.198;21.020;2022-12-31T17:54:27;100172.75;;;13.17;73.15
75747;BME280;64363;52.198;21.020;2022-12-31T17:56:53;100175.22;;;13.22;72.85
75747;BME280;64363;52.198;21.020;2022-12-31T17:59:21;100175.50;;;13.16;73.10
75747;BME280;64363;52.198;21.020;2022-12-31T18:01:48;100171.31;;;13.08;73.33
75747;BME280;64363;52.198;21.020;2022-12-31T18:04:16;100174.88;;;13.09;73.49
75747;BME280;64363;52.198;21.020;2022-12-31T18:06:42;100161.63;;;13.06;73.38
75747;BME280;64363;52.198;21.020;2022-12-31T18:09:09;100171.22;;;13.11;73.22
75747;BME280;64363;52.198;21.020;2022-12-31T18:11:36;100183.59;;;13.14;73.27
75747;BME280;64363;52.198;21.020;2022-12-31T18:14:03;100174.28;;;13.23;73.09
75747;BME280;64363;52.198;21.020;2022-12-31T18:16:29;100175.94;;;13.25;72.87
75747;BME280;64363;52.198;21.020;2022-12-31T18:18:59;100171.59;;;13.23;72.92
75747;BME280;64363;52.198;21.020;2022-12-31T18:21:31;100184.91;;;13.24;72.54
75747;BME280;64363;52.198;21.020;2022-12-31T18:23:58;100174.81;;;13.31;72.37
75747;BME280;64363;52.198;21.020;2022-12-31T18:26:25;100189.78;;;13.35;72.33
75747;BME280;64363;52.198;21.020;2022-12-31T18:28:51;100183.63;;;13.33;72.65
75747;BME280;64363;52.198;21.020;2022-12-31T18:33:46;100182.28;;;13.43;72.16
75747;BME280;64363;52.198;21.020;2022-12-31T18:36:14;100178.41;;;13.48;72.07
75747;BME280;64363;52.198;21.020;2022-12-31T18:38:40;100179.25;;;13.50;72.17
75747;BME280;64363;52.198;21.020;2022-12-31T18:41:17;100172.94;;;13.51;71.93
75747;BME280;64363;52.198;21.020;2022-12-31T18:43:43;100180.38;;;13.45;72.13
75747;BME280;64363;52.198;21.020;2022-12-31T18:46:14;100187.22;;;13.52;72.10
75747;BME280;64363;52.198;21.020;2022-12-31T18:48:40;100187.69;;;13.60;72.06
75747;BME280;64363;52.198;21.020;2022-12-31T18:51:17;100186.03;;;13.57;71.77
75747;BME280;64363;52.198;21.020;2022-12-31T18:53:43;100169.09;;;13.57;71.88
75747;BME280;64363;52.198;21.020;2022-12-31T18:56:11;100181.03;;;13.69;71.77
75747;BME280;64363;52.198;21.020;2022-12-31T18:58:37;100197.97;;;13.69;71.80
75747;BME280;64363;52.198;21.020;2022-12-31T19:01:03;100178.28;;;13.70;71.79
75747;BME280;64363;52.198;21.020;2022-12-31T19:03:29;100187.22;;;13.71;71.46
75747;BME280;64363;52.198;21.020;2022-12-31T19:05:55;100182.50;;;13.76;71.46
75747;BME280;64363;52.198;21.020;2022-12-31T19:08:22;100196.75;;;13.76;71.31
75747;BME280;64363;52.198;21.020;2022-12-31T19:10:50;100193.28;;;13.74;71.35
75747;BME280;64363;52.198;21.020;2022-12-31T19:13:17;100189.47;;;13.80;71.35
75747;BME280;64363;52.198;21.020;2022-12-31T19:15:47;100196.75;;;13.76;71.57
75747;BME280;64363;52.198;21.020;2022-12-31T19:18:13;100205.88;;;13.72;71.68
75747;BME280;64363;52.198;21.020;2022-12-31T19:20:40;100213.44;;;13.83;71.16
75747;BME280;64363;52.198;21.020;2022-12-31T19:23:12;100210.09;;;13.78;71.41
75747;BME280;64363;52.198;21.020;2022-12-31T19:25:40;100214.50;;;13.79;71.38
75747;BME280;64363;52.198;21.020;2022-12-31T19:28:14;100217.09;;;13.80;71.45
75747;BME280;64363;52.198;21.020;2022-12-31T19:30:41;100211.47;;;13.86;71.40
75747;BME280;64363;52.198;21.020;2022-12-31T19:33:06;100215.88;;;13.87;71.42
75747;BME280;64363;52.198;21.020;2022-12-31T19:35:32;100201.53;;;13.88;71.10
75747;BME280;64363;52.198;21.020;2022-12-31T19:37:58;100210.53;;;13.87;71.44
75747;BME280;64363;52.198;21.020;2022-12-31T19:40:28;100205.88;;;13.72;71.73
75747;BME280;64363;52.198;21.020;2022-12-31T19:42:54;100210.66;;;13.84;71.40
75747;BME280;64363;52.198;21.020;2022-12-31T19:45:26;100216.97;;;13.83;71.86
75747;BME280;64363;52.198;21.020;2022-12-31T19:47:53;100220.03;;;13.76;71.82
75747;BME280;64363;52.198;21.020;2022-12-31T19:50:21;100215.38;;;13.79;71.78
75747;BME280;64363;52.198;21.020;2022-12-31T19:52:49;100208.56;;;13.72;71.87
75747;BME280;64363;52.198;21.020;2022-12-31T19:55:19;100209.00;;;13.63;72.08
75747;BME280;64363;52.198;21.020;2022-12-31T19:57:46;100212.69;;;13.60;72.26
75747;BME280;64363;52.198;21.020;2022-12-31T20:00:13;100215.25;;;13.64;72.46
75747;BME280;64363;52.198;21.020;2022-12-31T20:02:42;100219.41;;;13.69;71.91
75747;BME280;64363;52.198;21.020;2022-12-31T20:05:09;100210.28;;;13.73;72.01
75747;BME280;64363;52.198;21.020;2022-12-31T20:07:35;100219.41;;;13.69;72.31
75747;BME280;64363;52.198;21.020;2022-12-31T20:10:01;100208.28;;;13.78;71.91
75747;BME280;64363;52.198;21.020;2022-12-31T20:12:27;100212.91;;;13.75;71.88
75747;BME280;64363;52.198;21.020;2022-12-31T20:14:54;100224.34;;;13.78;71.84
75747;BME280;64363;52.198;21.020;2022-12-31T20:17:20;100217.47;;;13.73;71.85
75747;BME280;64363;52.198;21.020;2022-12-31T20:19:46;100212.19;;;13.71;72.00
75747;BME280;64363;52.198;21.020;2022-12-31T20:22:12;100210.28;;;13.73;72.07
75747;BME280;64363;52.198;21.020;2022-12-31T20:24:38;100201.59;;;13.68;71.78
75747;BME280;64363;52.198;21.020;2022-12-31T20:27:04;100207.03;;;13.67;72.01
75747;BME280;64363;52.198;21.020;2022-12-31T20:29:31;100202.09;;;13.76;71.64
75747;BME280;64363;52.198;21.020;2022-12-31T20:31:57;100204.38;;;13.67;72.03
75747;BME280;64363;52.198;21.020;2022-12-31T20:34:23;100211.81;;;13.60;72.07
75747;BME280;64363;52.198;21.020;2022-12-31T20:36:48;100219.84;;;13.60;72.41
75747;BME280;64363;52.198;21.020;2022-12-31T20:39:14;100222.59;;;13.58;71.95
75747;BME280;64363;52.198;21.020;2022-12-31T20:41:40;100214.22;;;13.66;72.08
75747;BME280;64363;52.198;21.020;2022-12-31T20:44:06;100218.13;;;13.59;72.32
75747;BME280;64363;52.198;21.020;2022-12-31T20:46:32;100228.84;;;13.59;72.09
75747;BME280;64363;52.198;21.020;2022-12-31T20:48:59;100230.50;;;13.62;72.29
75747;BME280;64363;52.198;21.020;2022-12-31T20:51:27;100224.41;;;13.58;72.05
75747;BME280;64363;52.198;21.020;2022-12-31T20:53:55;100216.38;;;13.58;72.32
75747;BME280;64363;52.198;21.020;2022-12-31T20:56:22;100220.97;;;13.56;72.39
75747;BME280;64363;52.198;21.020;2022-12-31T20:58:49;100227.88;;;13.60;72.06
75747;BME280;64363;52.198;21.020;2022-12-31T21:01:16;100216.38;;;13.58;72.25
75747;BME280;64363;52.198;21.020;2022-12-31T21:03:43;100218.84;;;13.63;71.86
75747;BME280;64363;52.198;21.020;2022-12-31T21:06:11;100219.72;;;13.63;72.21
75747;BME280;64363;52.198;21.020;2022-12-31T21:08:38;100238.09;;;13.52;72.44
75747;BME280;64363;52.198;21.020;2022-12-31T21:11:04;100228.22;;;13.52;72.29
75747;BME280;64363;52.198;21.020;2022-12-31T21:13:49;100222.88;;;13.52;72.59
75747;BME280;64363;52.198;21.020;2022-12-31T21:16:15;100233.53;;;13.54;72.44
75747;BME280;64363;52.198;21.020;2022-12-31T21:18:41;100227.88;;;13.60;72.24
75747;BME280;64363;52.198;21.020;2022-12-31T21:21:09;100222.47;;;13.62;72.21
75747;BME280;64363;52.198;21.020;2022-12-31T21:23:35;100223.47;;;13.59;72.21
75747;BME280;64363;52.198;21.020;2022-12-31T21:26:00;100222.41;;;13.63;72.02
75747;BME280;64363;52.198;21.020;2022-12-31T21:28:26;100227.56;;;13.68;71.99
75747;BME280;64363;52.198;21.020;2022-12-31T21:30:59;100226.38;;;13.73;71.73
75747;BME280;64363;52.198;21.020;2022-12-31T21:33:25;100226.69;;;13.67;71.72
75747;BME280;64363;52.198;21.020;2022-12-31T21:35:51;100224.94;;;13.66;71.80
75747;BME280;64363;52.198;21.020;2022-12-31T21:38:17;100233.75;;;13.68;71.71
75747;BME280;64363;52.198;21.020;2022-12-31T21:40:43;100223.78;;;13.72;71.76
75747;BME280;64363;52.198;21.020;2022-12-31T21:43:10;100229.56;;;13.63;71.81
75747;BME280;64363;52.198;21.020;2022-12-31T21:45:36;100228.53;;;13.65;71.96
75747;BME280;64363;52.198;21.020;2022-12-31T21:48:02;100232.03;;;13.67;71.60
75747;BME280;64363;52.198;21.020;2022-12-31T21:50:50;100221.53;;;13.63;71.71
75747;BME280;64363;52.198;21.020;2022-12-31T21:53:17;100229.63;;;13.61;71.89
75747;BME280;64363;52.198;21.020;2022-12-31T21:55:43;100217.97;;;13.62;71.76
75747;BME280;64363;52.198;21.020;2022-12-31T21:58:29;100227.03;;;13.59;71.98
75747;BME280;64363;52.198;21.020;2022-12-31T22:00:55;100222.75;;;13.74;71.21
75747;BME280;64363;52.198;21.020;2022-12-31T22:03:40;100223.03;;;13.68;71.53
75747;BME280;64363;52.198;21.020;2022-12-31T22:06:08;100216.75;;;13.69;71.42
75747;BME280;64363;52.198;21.020;2022-12-31T22:08:39;100231.88;;;13.70;71.41
75747;BME280;64363;52.198;21.020;2022-12-31T22:11:05;100224.13;;;13.64;71.71
75747;BME280;64363;52.198;21.020;2022-12-31T22:13:31;100230.44;;;13.63;71.68
75747;BME280;64363;52.198;21.020;2022-12-31T22:15:58;100225.97;;;13.64;71.48
75747;BME280;64363;52.198;21.020;2022-12-31T22:18:25;100233.69;;;13.70;71.45
75747;BME280;64363;52.198;21.020;2022-12-31T22:21:33;100226.69;;;13.67;71.46
75747;BME280;64363;52.198;21.020;2022-12-31T22:23:54;100218.28;;;13.56;71.85
75747;BME280;64363;52.198;21.020;2022-12-31T22:26:23;100215.72;;;13.53;72.16
75747;BME280;64363;52.198;21.020;2022-12-31T22:28:49;100229.00;;;13.56;72.41
75747;BME280;64363;52.198;21.020;2022-12-31T22:31:22;100221.59;;;13.61;71.67
75747;BME280;64363;52.198;21.020;2022-12-31T22:33:51;100219.56;;;13.66;71.60
75747;BME280;64363;52.198;21.020;2022-12-31T22:36:21;100217.66;;;13.68;71.38
75747;BME280;64363;52.198;21.020;2022-12-31T22:38:49;100223.28;;;13.64;71.44
75747;BME280;64363;52.198;21.020;2022-12-31T22:41:18;100222.50;;;13.60;71.66
75747;BME280;64363;52.198;21.020;2022-12-31T22:43:46;100228.34;;;13.70;71.54
75747;BME280;64363;52.198;21.020;2022-12-31T22:46:23;100215.97;;;13.67;71.42
75747;BME280;64363;52.198;21.020;2022-12-31T22:48:51;100210.59;;;13.67;71.41
75747;BME280;64363;52.198;21.020;2022-12-31T22:51:18;100219.34;;;13.71;71.23
75747;BME280;64363;52.198;21.020;2022-12-31T22:53:44;100227.66;;;13.65;71.75
75747;BME280;64363;52.198;21.020;2022-12-31T22:56:13;100223.47;;;13.59;71.69
75747;BME280;64363;52.198;21.020;2022-12-31T22:58:40;100237.81;;;13.58;71.70
75747;BME280;64363;52.198;21.020;2022-12-31T23:01:07;100234.06;;;13.62;71.82
75747;BME280;64363;52.198;21.020;2022-12-31T23:03:33;100223.63;;;13.56;71.84
75747;BME280;64363;52.198;21.020;2022-12-31T23:05:59;100218.53;;;13.50;72.02
75747;BME280;64363;52.198;21.020;2022-12-31T23:08:25;100236.91;;;13.39;72.56
75747;BME280;64363;52.198;21.020;2022-12-31T23:10:52;100225.91;;;13.45;72.42
75747;BME280;64363;52.198;21.020;2022-12-31T23:13:30;100218.94;;;13.41;72.27
75747;BME280;64363;52.198;21.020;2022-12-31T23:16:14;100218.94;;;13.41;72.31
75747;BME280;64363;52.198;21.020;2022-12-31T23:18:59;100232.63;;;13.35;72.82
75747;BME280;64363;52.198;21.020;2022-12-31T23:21:44;100236.53;;;13.28;72.65
75747;BME280;64363;52.198;21.020;2022-12-31T23:24:28;100238.88;;;13.35;72.63
75747;BME280;64363;52.198;21.020;2022-12-31T23:26:55;100235.56;;;13.29;72.79
75747;BME280;64363;52.198;21.020;2022-12-31T23:29:22;100222.06;;;13.32;72.74
75747;BME280;64363;52.198;21.020;2022-12-31T23:31:48;100209.97;;;13.23;73.14
75747;BME280;64363;52.198;21.020;2022-12-31T23:34:14;100221.41;;;13.27;72.84
75747;BME280;64363;52.198;21.020;2022-12-31T23:36:40;100220.25;;;13.32;72.76
75747;BME280;64363;52.198;21.020;2022-12-31T23:39:06;100203.59;;;13.26;72.93
75747;BME280;64363;52.198;21.020;2022-12-31T23:41:32;100225.84;;;13.28;72.80
75747;BME280;64363;52.198;21.020;2022-12-31T23:43:57;100221.00;;;13.36;72.74
75747;BME280;64363;52.198;21.020;2022-12-31T23:46:23;100225.69;;;13.31;72.46
75747;BME280;64363;52.198;21.020;2022-12-31T23:48:49;100231.09;;;13.29;72.76
75747;BME280;64363;52.198;21.020;2022-12-31T23:51:15;100223.00;;;13.31;72.75
75747;BME280;64363;52.198;21.020;2022-12-31T23:53:41;100224.13;;;13.25;73.04
75747;BME280;64363;52.198;21.020;2022-12-31T23:56:08;100218.19;;;13.19;73.35
75747;BME280;64363;52.198;21.020;2022-12-31T23:58:35;100219.81;;;13.23;72.57
